Time;durP1;ratioP1;P1;durP2;ratioP2;P2;SDS_P1;SDS_P2;PMS_P1;PMS_P2;Temp;Humidity;BMP_temperature;BMP_pressure;BME280_temperature;BME280_humidity;BME280_pressure;Samples;Min_cycle;Max_cycle;Signal;HPM_P1;HPM_P2
2023/04/08 00:02:08;;;;;;;14.25;8.52;;;5.10;99.90;;;;;;4945743;28;20046;-51
2023/04/08 00:04:34;;;;;;;11.73;8.55;;;5.00;99.90;;;;;;4943209;28;20050;-51
2023/04/08 00:07:00;;;;;;;11.40;8.65;;;5.00;99.90;;;;;;4946113;28;20129;-51
2023/04/08 00:09:25;;;;;;;12.77;8.57;;;4.90;99.90;;;;;;4947151;28;20090;-52
2023/04/08 00:11:52;;;;;;;13.52;8.95;;;4.90;99.90;;;;;;4947203;28;20054;-54
2023/04/08 00:14:17;;;;;;;12.70;8.75;;;4.90;99.90;;;;;;4947262;28;20058;-51
2023/04/08 00:16:43;;;;;;;13.43;9.65;;;4.90;99.90;;;;;;4944927;28;20043;-50
2023/04/08 00:19:09;;;;;;;15.48;9.80;;;4.80;99.90;;;;;;4941843;28;20055;-49
2023/04/08 00:21:35;;;;;;;12.90;9.43;;;4.80;99.90;;;;;;4949693;28;20070;-50
2023/04/08 00:24:01;;;;;;;14.05;9.80;;;4.80;99.90;;;;;;4940303;28;20051;-50
2023/04/08 00:26:26;;;;;;;13.45;9.98;;;4.80;99.90;;;;;;4947583;28;20035;-53
2023/04/08 00:28:52;;;;;;;12.32;9.63;;;4.70;99.90;;;;;;4946693;28;20118;-51
2023/04/08 00:31:18;;;;;;;12.88;9.32;;;4.70;99.90;;;;;;4946751;28;20548;-53
2023/04/08 00:33:44;;;;;;;11.75;9.23;;;4.80;99.90;;;;;;4952705;28;20047;-53
2023/04/08 00:36:10;;;;;;;11.77;8.70;;;4.60;99.90;;;;;;4946821;28;21656;-50
2023/04/08 00:38:36;;;;;;;13.98;9.30;;;4.60;99.90;;;;;;4946972;28;20083;-50
2023/04/08 00:41:01;;;;;;;14.57;9.65;;;4.50;99.90;;;;;;4948576;28;20835;-53
2023/04/08 00:43:27;;;;;;;12.38;9.15;;;4.50;99.90;;;;;;4946541;28;20038;-50
2023/04/08 00:45:53;;;;;;;13.68;9.23;;;4.40;99.90;;;;;;4946394;28;20085;-49
2023/04/08 00:48:19;;;;;;;13.48;9.52;;;4.40;99.90;;;;;;4945402;28;20027;-50
2023/04/08 00:50:46;;;;;;;14.07;9.48;;;4.40;99.90;;;;;;4943012;28;20118;-50
2023/04/08 00:53:17;;;;;;;14.65;9.40;;;4.40;99.90;;;;;;4947411;28;20508;-52
2023/04/08 00:55:43;;;;;;;14.10;9.02;;;4.30;99.90;;;;;;4944879;28;20039;-50
2023/04/08 00:58:09;;;;;;;14.40;9.43;;;4.20;99.90;;;;;;4944694;28;20449;-50
2023/04/08 01:00:41;;;;;;;11.50;9.63;;;4.10;99.90;;;;;;4943370;28;20077;-51
2023/04/08 01:03:15;;;;;;;18.70;10.05;;;4.10;99.90;;;;;;4936114;28;20482;-51
2023/04/08 01:06:02;;;;;;;12.23;9.73;;;4.10;99.90;;;;;;4945455;28;20761;-51
2023/04/08 01:08:30;;;;;;;13.07;10.00;;;4.10;99.90;;;;;;4946138;28;20047;-50
2023/04/08 01:11:00;;;;;;;13.70;9.95;;;4.10;99.90;;;;;;4942679;28;20516;-51
2023/04/08 01:13:31;;;;;;;15.55;10.57;;;4.00;99.90;;;;;;4944310;28;20496;-50
2023/04/08 01:15:58;;;;;;;12.65;10.00;;;4.00;99.90;;;;;;4940161;28;20487;-50
2023/04/08 01:18:25;;;;;;;14.93;10.52;;;3.90;99.90;;;;;;4945683;28;20523;-53
2023/04/08 01:20:53;;;;;;;13.20;9.50;;;3.90;99.90;;;;;;4943096;28;20501;-50
2023/04/08 01:23:27;;;;;;;14.45;10.25;;;3.90;99.90;;;;;;4944521;28;20450;-50
2023/04/08 01:25:54;;;;;;;14.30;9.45;;;3.90;99.90;;;;;;4946145;28;20070;-50
2023/04/08 01:28:24;;;;;;;17.77;10.82;;;3.80;99.90;;;;;;4944518;28;20110;-52
2023/04/08 01:30:51;;;;;;;12.65;9.60;;;3.90;99.90;;;;;;4945517;28;20055;-50
2023/04/08 01:33:18;;;;;;;14.55;10.18;;;3.80;99.90;;;;;;4943365;28;20051;-51
2023/04/08 01:35:44;;;;;;;16.25;11.18;;;3.80;99.90;;;;;;4943885;28;20059;-50
2023/04/08 01:38:17;;;;;;;17.30;11.38;;;3.80;99.90;;;;;;4938507;28;20067;-51
2023/04/08 01:40:45;;;;;;;16.20;11.30;;;3.70;99.90;;;;;;4929926;28;20076;-51
2023/04/08 01:43:14;;;;;;;15.68;11.40;;;3.70;99.90;;;;;;4944813;28;20043;-49
2023/04/08 01:45:44;;;;;;;16.85;11.90;;;3.70;99.90;;;;;;4942591;28;20125;-50
2023/04/08 01:48:12;;;;;;;18.73;12.93;;;3.70;99.90;;;;;;4949832;28;20129;-49
2023/04/08 01:50:42;;;;;;;15.52;11.50;;;3.60;99.90;;;;;;4947245;28;20497;-49
2023/04/08 01:53:09;;;;;;;16.77;12.18;;;3.60;99.90;;;;;;4946503;28;20539;-50
2023/04/08 01:55:37;;;;;;;16.10;12.15;;;3.60;99.90;;;;;;4943574;28;20074;-49
2023/04/08 01:58:06;;;;;;;17.35;12.95;;;3.60;99.90;;;;;;4945062;28;20039;-52
2023/04/08 02:00:33;;;;;;;15.68;11.70;;;3.60;99.90;;;;;;4943273;28;20097;-49
2023/04/08 02:03:01;;;;;;;16.25;12.60;;;3.60;99.90;;;;;;4945098;28;20050;-49
2023/04/08 02:05:27;;;;;;;16.75;12.13;;;3.50;99.90;;;;;;4943929;28;20674;-51
2023/04/08 02:07:52;;;;;;;15.65;13.07;;;3.50;99.90;;;;;;4942692;28;20043;-51
2023/04/08 02:10:18;;;;;;;19.33;13.55;;;3.50;99.90;;;;;;4942283;28;20050;-49
2023/04/08 02:12:45;;;;;;;18.23;12.82;;;3.50;99.90;;;;;;4941112;28;20050;-50
2023/04/08 02:15:12;;;;;;;19.85;15.18;;;3.50;99.90;;;;;;4945792;28;20535;-49
2023/04/08 02:17:49;;;;;;;19.33;14.25;;;3.50;99.90;;;;;;4948481;28;20046;-52
2023/04/08 02:20:46;;;;;;;18.50;12.93;;;3.50;99.90;;;;;;4943740;28;20157;-52
2023/04/08 02:23:21;;;;;;;17.75;13.43;;;3.40;99.90;;;;;;4942773;28;20055;-50
2023/04/08 02:25:48;;;;;;;17.38;13.50;;;3.40;99.90;;;;;;4946658;28;20039;-50
2023/04/08 02:28:16;;;;;;;20.17;13.95;;;3.40;99.90;;;;;;4946305;28;20043;-52
2023/04/08 02:30:47;;;;;;;18.08;14.25;;;3.40;99.90;;;;;;4945203;28;20079;-53
2023/04/08 02:33:13;;;;;;;20.35;14.27;;;3.40;99.90;;;;;;4948461;28;20393;-50
2023/04/08 02:35:40;;;;;;;19.50;14.27;;;3.40;99.90;;;;;;4950840;28;20054;-49
2023/04/08 02:38:06;;;;;;;20.50;14.73;;;3.40;99.90;;;;;;4945706;28;20055;-49
2023/04/08 02:40:32;;;;;;;22.23;15.80;;;3.30;99.90;;;;;;4948364;28;20051;-49
2023/04/08 02:42:59;;;;;;;21.50;15.20;;;3.30;99.90;;;;;;4951208;28;20185;-50
2023/04/08 02:45:45;;;;;;;20.58;14.77;;;3.30;99.90;;;;;;4945504;28;20047;-51
2023/04/08 02:48:11;;;;;;;22.35;16.00;;;3.30;99.90;;;;;;4949483;28;20635;-50
2023/04/08 02:50:37;;;;;;;20.58;15.60;;;3.20;99.90;;;;;;4948353;28;20118;-52
2023/04/08 02:53:03;;;;;;;23.88;15.55;;;3.20;99.90;;;;;;4946328;28;20148;-53
2023/04/08 02:55:28;;;;;;;25.30;17.38;;;3.30;99.90;;;;;;4948910;28;20070;-50
2023/04/08 02:57:54;;;;;;;22.92;16.85;;;3.20;99.90;;;;;;4946606;28;20050;-51
2023/04/08 03:00:20;;;;;;;24.83;16.50;;;3.20;99.90;;;;;;4952428;28;20652;-51
2023/04/08 03:02:45;;;;;;;23.75;17.17;;;3.30;99.90;;;;;;4950576;28;20377;-50
2023/04/08 03:05:11;;;;;;;28.40;19.20;;;3.20;99.90;;;;;;4944152;28;20046;-51
2023/04/08 03:07:37;;;;;;;24.88;17.90;;;3.20;99.90;;;;;;4948378;28;20078;-50
2023/04/08 03:10:03;;;;;;;24.13;17.63;;;3.20;99.90;;;;;;4948169;28;20182;-54
2023/04/08 03:12:30;;;;;;;25.70;17.58;;;3.10;99.90;;;;;;4948807;28;20108;-50
2023/04/08 03:14:56;;;;;;;26.23;19.50;;;3.20;99.90;;;;;;4949414;28;20101;-50
2023/04/08 03:17:21;;;;;;;26.35;18.95;;;3.10;99.90;;;;;;4944740;28;20042;-50
2023/04/08 03:19:47;;;;;;;26.42;19.38;;;3.10;99.90;;;;;;4948310;28;20576;-51
2023/04/08 03:22:13;;;;;;;29.73;19.90;;;3.10;99.90;;;;;;4944795;28;20576;-50
2023/04/08 03:24:39;;;;;;;27.98;18.83;;;3.10;99.90;;;;;;4944902;28;20051;-50
2023/04/08 03:27:05;;;;;;;29.83;19.42;;;3.00;99.90;;;;;;4947982;28;20122;-49
2023/04/08 03:29:30;;;;;;;28.50;19.23;;;3.00;99.90;;;;;;4945358;28;20050;-50
2023/04/08 03:31:56;;;;;;;27.20;19.27;;;3.00;99.90;;;;;;4947085;28;20085;-50
2023/04/08 03:34:22;;;;;;;29.00;19.48;;;3.00;99.90;;;;;;4946389;28;20391;-50
2023/04/08 03:36:48;;;;;;;29.25;19.42;;;3.00;99.90;;;;;;4946658;28;20273;-49
2023/04/08 03:39:13;;;;;;;29.13;20.30;;;3.00;99.90;;;;;;4944073;28;20054;-50
2023/04/08 03:41:39;;;;;;;30.20;20.20;;;3.10;99.90;;;;;;4947957;28;20386;-49
2023/04/08 03:44:05;;;;;;;30.45;20.63;;;3.00;99.90;;;;;;4942745;28;20051;-52
2023/04/08 03:46:30;;;;;;;31.15;21.23;;;3.00;99.90;;;;;;4950208;28;20534;-49
2023/04/08 03:48:56;;;;;;;30.75;20.85;;;3.00;99.90;;;;;;4943900;28;20708;-53
2023/04/08 03:51:22;;;;;;;31.73;21.23;;;2.90;99.90;;;;;;4948511;28;20093;-50
2023/04/08 03:53:48;;;;;;;31.83;21.38;;;3.00;99.90;;;;;;4948024;28;20460;-50
2023/04/08 03:56:14;;;;;;;34.33;21.23;;;3.00;99.90;;;;;;4948607;28;20039;-51
2023/04/08 03:58:40;;;;;;;32.33;21.00;;;3.00;99.90;;;;;;4952025;28;20137;-50
2023/04/08 04:01:06;;;;;;;29.42;20.67;;;3.00;99.90;;;;;;4946904;28;20501;-50
2023/04/08 04:03:32;;;;;;;27.80;19.35;;;3.00;99.90;;;;;;4949558;28;20406;-49
2023/04/08 04:05:57;;;;;;;26.40;19.80;;;3.00;99.90;;;;;;4956844;28;20054;-50
2023/04/08 04:08:23;;;;;;;26.00;19.70;;;3.00;99.90;;;;;;4949854;28;20138;-49
2023/04/08 04:10:50;;;;;;;29.35;20.58;;;3.00;99.90;;;;;;4943307;28;20116;-50
2023/04/08 04:13:16;;;;;;;32.70;21.50;;;3.00;99.90;;;;;;4948711;28;20061;-49
2023/04/08 04:15:42;;;;;;;29.60;21.33;;;3.00;99.90;;;;;;4946913;28;20039;-50
2023/04/08 04:18:07;;;;;;;31.10;20.83;;;3.00;99.90;;;;;;4951632;28;20732;-53
2023/04/08 04:20:33;;;;;;;30.65;21.13;;;3.00;99.90;;;;;;4944832;28;20172;-51
2023/04/08 04:22:59;;;;;;;32.10;20.63;;;3.00;99.90;;;;;;4948364;28;20112;-50
2023/04/08 04:25:24;;;;;;;31.58;21.80;;;3.00;99.90;;;;;;4943773;28;20490;-53
2023/04/08 04:27:50;;;;;;;28.60;20.45;;;2.90;99.90;;;;;;4945271;28;20073;-51
2023/04/08 04:30:18;;;;;;;31.88;20.15;;;2.90;99.90;;;;;;4947282;28;20039;-50
2023/04/08 04:32:44;;;;;;;28.98;20.83;;;2.90;99.90;;;;;;4943613;28;20146;-50
2023/04/08 04:35:10;;;;;;;28.00;20.05;;;2.90;99.90;;;;;;4940126;28;20705;-50
2023/04/08 04:37:36;;;;;;;28.90;19.70;;;2.90;99.90;;;;;;4945053;28;20070;-52
2023/04/08 04:40:02;;;;;;;32.85;22.27;;;2.90;99.90;;;;;;4945162;28;20046;-49
2023/04/08 04:42:28;;;;;;;28.52;19.75;;;2.90;99.90;;;;;;4946803;28;20050;-53
2023/04/08 04:44:54;;;;;;;32.85;22.05;;;2.90;99.90;;;;;;4947071;28;20050;-50
2023/04/08 04:47:20;;;;;;;32.92;20.65;;;2.90;99.90;;;;;;4946087;28;20124;-52
2023/04/08 04:49:45;;;;;;;33.38;21.75;;;2.90;99.90;;;;;;4945260;28;20488;-51
2023/04/08 04:52:11;;;;;;;31.05;21.15;;;2.80;99.90;;;;;;4944291;28;20058;-50
2023/04/08 04:54:37;;;;;;;33.20;21.50;;;2.80;99.90;;;;;;4942683;28;20137;-49
2023/04/08 04:57:03;;;;;;;31.15;21.63;;;2.90;99.90;;;;;;4941762;28;20813;-53
2023/04/08 04:59:28;;;;;;;32.08;21.50;;;2.80;99.90;;;;;;4940506;28;20106;-49
2023/04/08 05:01:56;;;;;;;31.58;21.38;;;2.80;99.90;;;;;;4943551;28;20047;-51
2023/04/08 05:04:23;;;;;;;33.13;21.45;;;2.80;99.90;;;;;;4941317;28;20682;-53
2023/04/08 05:06:49;;;;;;;37.55;23.90;;;2.80;99.90;;;;;;4939325;28;20051;-50
2023/04/08 05:09:14;;;;;;;33.40;21.90;;;2.80;99.90;;;;;;4942983;28;20061;-51
2023/04/08 05:11:40;;;;;;;32.35;22.52;;;2.80;99.90;;;;;;4939051;28;20040;-50
2023/04/08 05:14:06;;;;;;;34.58;22.83;;;2.80;99.90;;;;;;4941557;28;20047;-49
2023/04/08 05:16:32;;;;;;;34.15;22.75;;;2.90;99.90;;;;;;4944734;28;20046;-50
2023/04/08 05:18:58;;;;;;;33.38;21.88;;;2.80;99.90;;;;;;4940705;28;20065;-49
2023/04/08 05:21:25;;;;;;;35.17;22.70;;;2.90;99.90;;;;;;4941881;28;20405;-50
2023/04/08 05:23:52;;;;;;;33.67;22.73;;;2.90;99.90;;;;;;4944388;28;20122;-53
2023/04/08 05:26:20;;;;;;;36.03;23.60;;;2.90;99.90;;;;;;4943549;28;20051;-50
2023/04/08 05:28:47;;;;;;;35.55;22.58;;;2.90;99.90;;;;;;4942617;28;20047;-50
2023/04/08 05:31:15;;;;;;;36.00;23.80;;;2.90;99.90;;;;;;4942352;28;20039;-50
2023/04/08 05:33:41;;;;;;;31.60;22.10;;;3.00;99.90;;;;;;4944325;28;20085;-49
2023/04/08 05:36:07;;;;;;;34.55;22.35;;;3.00;99.90;;;;;;4945265;28;20047;-49
2023/04/08 05:38:32;;;;;;;33.78;22.70;;;3.10;99.90;;;;;;4943628;28;20059;-50
2023/04/08 05:40:58;;;;;;;37.00;24.15;;;3.00;99.90;;;;;;4940553;28;20051;-50
2023/04/08 05:43:24;;;;;;;32.15;22.70;;;3.10;99.90;;;;;;4943641;28;20078;-51
2023/04/08 05:45:50;;;;;;;32.50;21.15;;;3.10;99.90;;;;;;4944788;28;20481;-50
2023/04/08 05:48:16;;;;;;;34.53;22.30;;;3.20;99.90;;;;;;4946345;28;20126;-50
2023/04/08 05:50:42;;;;;;;30.27;20.98;;;3.10;99.90;;;;;;4944292;28;20110;-49
2023/04/08 05:53:09;;;;;;;30.65;21.27;;;3.10;99.90;;;;;;4943904;28;20055;-49
2023/04/08 05:55:35;;;;;;;32.72;22.95;;;3.10;99.90;;;;;;4949050;28;20042;-49
2023/04/08 05:58:01;;;;;;;31.48;21.55;;;3.20;99.90;;;;;;4951071;28;20557;-50
2023/04/08 06:00:26;;;;;;;32.47;21.85;;;3.20;99.90;;;;;;4953499;28;20097;-50
2023/04/08 06:02:52;;;;;;;29.92;21.55;;;3.20;99.90;;;;;;4936224;28;20061;-52
2023/04/08 06:05:18;;;;;;;31.52;21.63;;;3.20;99.90;;;;;;4948019;28;20043;-50
2023/04/08 06:07:44;;;;;;;36.83;23.38;;;3.30;99.90;;;;;;4951820;28;20074;-51
2023/04/08 06:10:10;;;;;;;43.50;26.55;;;3.40;99.90;;;;;;4952174;28;20395;-50
2023/04/08 06:12:39;;;;;;;38.85;25.48;;;3.40;99.90;;;;;;4954222;28;20039;-51
2023/04/08 06:15:06;;;;;;;43.08;25.25;;;3.50;99.90;;;;;;4945692;28;20054;-49
2023/04/08 06:17:34;;;;;;;38.95;25.08;;;3.60;99.90;;;;;;4952068;28;20066;-50
2023/04/08 06:20:01;;;;;;;38.10;24.33;;;3.70;99.90;;;;;;4952564;28;20051;-50
2023/04/08 06:22:26;;;;;;;36.20;24.52;;;3.80;99.90;;;;;;4943373;28;20410;-50
2023/04/08 06:24:52;;;;;;;37.75;25.23;;;3.90;99.90;;;;;;4953368;28;20632;-49
2023/04/08 06:27:19;;;;;;;41.78;25.90;;;3.90;99.90;;;;;;4949826;28;20038;-49
2023/04/08 06:29:44;;;;;;;37.42;24.85;;;4.00;99.90;;;;;;4954439;28;20409;-50
2023/04/08 06:32:10;;;;;;;40.72;25.20;;;4.10;99.90;;;;;;4948897;28;20039;-51
2023/04/08 06:34:36;;;;;;;41.45;25.70;;;4.20;99.90;;;;;;4947575;28;20046;-49
2023/04/08 06:37:02;;;;;;;40.00;24.75;;;4.30;99.90;;;;;;4948509;28;20059;-49
2023/04/08 06:39:28;;;;;;;39.17;24.98;;;4.40;99.90;;;;;;4948242;28;20124;-49
2023/04/08 06:41:54;;;;;;;41.92;26.10;;;4.60;99.90;;;;;;4947184;28;20081;-51
2023/04/08 06:44:19;;;;;;;37.55;23.73;;;4.60;99.90;;;;;;4946486;28;20473;-49
2023/04/08 06:46:45;;;;;;;34.25;23.30;;;4.70;99.90;;;;;;4950537;28;20039;-51
2023/04/08 06:49:12;;;;;;;36.85;22.75;;;4.80;99.90;;;;;;4950102;28;20046;-51
2023/04/08 06:51:37;;;;;;;34.08;22.58;;;4.80;99.90;;;;;;4948758;28;20132;-51
2023/04/08 06:54:03;;;;;;;33.13;22.52;;;4.90;99.90;;;;;;4947982;28;20416;-50
2023/04/08 06:56:29;;;;;;;32.50;21.83;;;5.00;99.90;;;;;;4948538;28;20075;-50
2023/04/08 06:58:54;;;;;;;35.10;22.33;;;5.10;99.90;;;;;;4943998;28;20489;-49
2023/04/08 07:01:20;;;;;;;37.75;22.92;;;5.10;99.90;;;;;;4945686;28;20050;-51
2023/04/08 07:03:46;;;;;;;33.08;21.48;;;5.20;99.90;;;;;;4951774;28;20134;-52
2023/04/08 07:06:12;;;;;;;32.05;21.48;;;5.30;99.90;;;;;;4949168;28;20393;-50
2023/04/08 07:08:37;;;;;;;32.08;21.75;;;5.30;99.90;;;;;;4949466;28;20393;-49
2023/04/08 07:11:04;;;;;;;31.25;21.67;;;5.50;99.90;;;;;;4944754;28;20471;-49
2023/04/08 07:13:30;;;;;;;29.58;20.60;;;5.50;99.90;;;;;;4949418;28;20059;-51
2023/04/08 07:15:55;;;;;;;31.63;20.92;;;5.60;99.90;;;;;;4947980;28;20514;-52
2023/04/08 07:18:22;;;;;;;26.98;19.52;;;5.70;99.90;;;;;;4951941;28;20047;-50
2023/04/08 07:20:53;;;;;;;32.95;20.20;;;5.80;99.90;;;;;;4947746;28;20054;-50
2023/04/08 07:23:20;;;;;;;28.90;20.35;;;5.90;99.90;;;;;;4952573;28;20111;-50
2023/04/08 07:25:47;;;;;;;32.47;20.80;;;5.90;99.90;;;;;;4950519;28;20517;-50
2023/04/08 07:28:13;;;;;;;31.05;20.48;;;6.00;99.90;;;;;;4951993;28;20148;-49
2023/04/08 07:30:38;;;;;;;32.28;19.35;;;6.10;99.90;;;;;;4954363;28;20070;-52
2023/04/08 07:33:04;;;;;;;28.08;18.85;;;6.10;99.90;;;;;;4949575;28;20046;-50
2023/04/08 07:35:30;;;;;;;27.35;18.98;;;6.10;99.90;;;;;;4947170;28;20053;-50
2023/04/08 07:37:56;;;;;;;26.95;18.92;;;6.20;99.90;;;;;;4948679;28;20069;-53
2023/04/08 07:40:22;;;;;;;25.90;18.63;;;6.30;99.90;;;;;;4945476;28;20078;-49
2023/04/08 07:42:48;;;;;;;29.83;19.92;;;6.30;99.90;;;;;;4953511;28;20561;-51
2023/04/08 07:45:14;;;;;;;29.92;19.98;;;6.40;99.90;;;;;;4945780;28;20047;-53
2023/04/08 07:47:40;;;;;;;27.98;20.08;;;6.40;99.90;;;;;;4943225;28;20046;-50
2023/04/08 07:50:06;;;;;;;31.80;21.90;;;6.40;99.90;;;;;;4945587;28;20053;-50
2023/04/08 07:52:32;;;;;;;29.52;20.52;;;6.50;99.90;;;;;;4946877;28;20535;-50
2023/04/08 07:54:58;;;;;;;29.63;20.30;;;6.50;99.90;;;;;;4950948;28;20630;-49
2023/04/08 07:57:25;;;;;;;28.25;18.17;;;6.60;99.90;;;;;;4946317;28;20072;-49
2023/04/08 07:59:51;;;;;;;30.33;20.05;;;6.60;99.90;;;;;;4943549;28;20050;-50
2023/04/08 08:02:17;;;;;;;27.48;18.85;;;6.70;99.90;;;;;;4943268;28;20031;-50
2023/04/08 08:04:42;;;;;;;24.25;17.52;;;6.70;99.90;;;;;;4945041;28;20051;-49
2023/04/08 08:07:08;;;;;;;24.92;17.98;;;6.70;99.90;;;;;;4947604;28;20043;-49
2023/04/08 08:09:34;;;;;;;28.35;18.48;;;6.70;99.90;;;;;;4949059;28;20119;-49
2023/04/08 08:11:59;;;;;;;32.45;21.33;;;6.80;99.90;;;;;;4947987;28;20078;-50
2023/04/08 08:14:25;;;;;;;35.42;23.20;;;6.80;99.90;;;;;;4938383;28;20054;-50
2023/04/08 08:16:54;;;;;;;36.63;23.10;;;6.80;99.90;;;;;;4946526;28;20047;-50
2023/04/08 08:19:20;;;;;;;31.98;21.40;;;6.70;99.90;;;;;;4944272;28;20044;-50
2023/04/08 08:21:46;;;;;;;27.42;19.58;;;6.80;99.90;;;;;;4942174;28;20097;-54
2023/04/08 08:24:11;;;;;;;26.02;18.17;;;6.80;99.90;;;;;;4944732;28;20054;-53
2023/04/08 08:26:37;;;;;;;25.33;17.25;;;6.80;99.90;;;;;;4943780;28;20051;-52
2023/04/08 08:29:04;;;;;;;25.95;19.10;;;6.80;99.90;;;;;;4945482;28;20047;-52
2023/04/08 08:31:30;;;;;;;25.00;17.13;;;6.90;99.90;;;;;;4942050;28;20042;-54
2023/04/08 08:33:55;;;;;;;23.33;17.17;;;6.90;99.90;;;;;;4940005;28;20072;-56
2023/04/08 08:36:21;;;;;;;21.13;15.95;;;6.90;99.90;;;;;;4945253;28;20557;-55
2023/04/08 08:38:47;;;;;;;22.83;15.73;;;6.90;99.90;;;;;;4940556;28;20066;-53
2023/04/08 08:41:13;;;;;;;20.80;15.38;;;6.90;99.90;;;;;;4938964;28;20527;-54
2023/04/08 08:43:39;;;;;;;21.23;15.50;;;7.00;99.90;;;;;;4938014;28;20043;-53
2023/04/08 08:46:10;;;;;;;24.50;16.08;;;6.90;99.90;;;;;;4948223;28;20125;-54
2023/04/08 08:48:37;;;;;;;22.10;16.02;;;7.00;99.90;;;;;;4935328;28;20070;-52
2023/04/08 08:51:12;;;;;;;23.40;15.77;;;7.00;99.90;;;;;;4942220;28;20051;-53
2023/04/08 08:53:39;;;;;;;22.65;16.15;;;7.00;99.90;;;;;;4945056;28;20134;-52
2023/04/08 08:56:08;;;;;;;23.90;15.70;;;7.00;99.90;;;;;;4938934;28;20050;-56
2023/04/08 08:58:34;;;;;;;20.63;15.45;;;7.10;99.90;;;;;;4939038;28;20055;-53
2023/04/08 09:01:00;;;;;;;20.38;14.68;;;7.10;99.90;;;;;;4937115;28;20374;-51
2023/04/08 09:03:27;;;;;;;22.45;14.23;;;7.10;99.90;;;;;;4938697;28;20109;-54
2023/04/08 09:06:01;;;;;;;20.23;13.90;;;7.10;99.90;;;;;;4948268;28;20074;-52
2023/04/08 09:08:32;;;;;;;19.45;14.07;;;7.20;99.90;;;;;;4934046;28;20179;-53
2023/04/08 09:11:13;;;;;;;21.05;15.98;;;7.10;99.90;;;;;;4937107;28;20409;-51
2023/04/08 09:13:40;;;;;;;18.73;13.93;;;7.20;99.90;;;;;;4941920;28;20043;-53
2023/04/08 09:16:15;;;;;;;20.23;13.23;;;7.20;99.90;;;;;;4947569;28;20604;-52
2023/04/08 09:18:44;;;;;;;18.50;13.25;;;7.20;99.90;;;;;;4943021;28;20170;-55
2023/04/08 09:21:11;;;;;;;18.23;13.60;;;7.30;99.90;;;;;;4943435;28;20050;-51
2023/04/08 09:23:44;;;;;;;17.75;12.77;;;7.30;99.90;;;;;;4945754;28;20070;-54
2023/04/08 09:26:11;;;;;;;19.58;13.38;;;7.30;99.90;;;;;;4947786;28;20482;-52
2023/04/08 09:28:38;;;;;;;18.50;12.70;;;7.30;99.90;;;;;;4947450;28;20039;-51
2023/04/08 09:31:26;;;;;;;18.50;12.50;;;7.30;99.90;;;;;;4947906;28;20039;-55
2023/04/08 09:33:54;;;;;;;20.30;13.05;;;7.40;99.90;;;;;;4945608;28;20054;-51
2023/04/08 09:36:20;;;;;;;17.50;13.23;;;7.40;99.90;;;;;;4941339;28;20434;-51
2023/04/08 09:38:46;;;;;;;17.92;13.02;;;7.50;99.90;;;;;;4943845;28;20051;-52
2023/04/08 09:41:16;;;;;;;21.15;14.63;;;7.50;99.90;;;;;;4938910;28;20053;-53
2023/04/08 09:43:54;;;;;;;20.83;14.68;;;7.50;99.90;;;;;;4934490;28;20047;-51
2023/04/08 09:46:51;;;;;;;23.13;15.57;;;7.60;99.90;;;;;;4932183;28;20158;-50
2023/04/08 09:49:21;;;;;;;23.85;16.15;;;7.60;99.90;;;;;;4937635;28;20052;-52
2023/04/08 09:52:07;;;;;;;24.17;16.23;;;7.70;99.90;;;;;;4933960;28;20046;-54
2023/04/08 09:54:58;;;;;;;23.85;16.05;;;7.80;99.90;;;;;;4938430;28;20050;-52
2023/04/08 09:57:30;;;;;;;25.30;16.27;;;8.00;99.90;;;;;;4939038;28;20050;-51
2023/04/08 10:00:06;;;;;;;23.23;15.82;;;8.10;99.90;;;;;;4938067;28;20061;-51
2023/04/08 10:02:42;;;;;;;21.65;14.80;;;8.20;99.90;;;;;;4943912;28;20043;-52
2023/04/08 10:05:11;;;;;;;19.58;13.98;;;8.20;99.90;;;;;;4946062;28;20040;-51
2023/04/08 10:07:38;;;;;;;21.60;14.65;;;8.30;99.90;;;;;;4945841;28;20404;-51
2023/04/08 10:10:05;;;;;;;20.63;14.77;;;8.40;99.90;;;;;;4951749;28;20047;-53
2023/04/08 10:12:32;;;;;;;20.45;14.23;;;8.50;99.90;;;;;;4944952;28;20086;-50
2023/04/08 10:15:30;;;;;;;20.33;14.70;;;8.60;99.90;;;;;;4945197;28;20134;-51
2023/04/08 10:18:19;;;;;;;19.00;13.15;;;8.60;99.90;;;;;;4949239;28;20070;-50
2023/04/08 10:20:48;;;;;;;19.83;13.80;;;8.70;99.90;;;;;;4944035;28;20043;-50
2023/04/08 10:23:16;;;;;;;22.02;13.68;;;8.60;99.90;;;;;;4944533;28;20055;-51
2023/04/08 10:25:47;;;;;;;21.50;14.10;;;8.60;99.90;;;;;;4955048;28;20043;-51
2023/04/08 10:28:18;;;;;;;19.80;13.63;;;8.60;99.90;;;;;;4950829;28;20105;-53
2023/04/08 10:30:55;;;;;;;21.77;14.35;;;8.60;99.90;;;;;;4946549;28;20046;-50
2023/04/08 10:33:33;;;;;;;24.58;14.57;;;8.60;99.90;;;;;;4937150;28;20082;-53
2023/04/08 10:36:10;;;;;;;25.92;15.68;;;8.60;99.90;;;;;;4938640;28;20059;-50
2023/04/08 10:38:41;;;;;;;23.88;16.05;;;8.60;99.90;;;;;;4923540;28;20063;-51
2023/04/08 10:41:12;;;;;;;29.58;18.30;;;8.60;99.90;;;;;;4937198;28;20379;-51
2023/04/08 10:43:38;;;;;;;32.42;19.55;;;8.60;99.90;;;;;;4948330;28;20583;-50
2023/04/08 10:46:05;;;;;;;29.20;19.02;;;8.60;99.90;;;;;;4944095;28;20035;-50
2023/04/08 10:48:30;;;;;;;36.13;20.52;;;8.60;99.90;;;;;;4943099;28;20054;-51
2023/04/08 10:51:01;;;;;;;33.38;20.33;;;8.70;99.90;;;;;;4949034;28;20458;-50
2023/04/08 10:53:28;;;;;;;31.13;21.10;;;8.70;99.90;;;;;;4951222;28;20244;-51
2023/04/08 10:56:13;;;;;;;35.75;22.02;;;8.70;99.90;;;;;;4947548;28;20130;-53
2023/04/08 10:58:50;;;;;;;31.92;21.50;;;8.70;99.90;;;;;;4948410;28;20046;-51
2023/04/08 11:01:16;;;;;;;31.15;20.30;;;8.80;99.90;;;;;;4950291;28;20047;-51
2023/04/08 11:03:42;;;;;;;34.35;20.67;;;8.90;99.90;;;;;;4945445;28;20078;-50
2023/04/08 11:06:08;;;;;;;33.17;20.58;;;9.00;99.90;;;;;;4947297;28;20140;-51
2023/04/08 11:08:38;;;;;;;37.72;21.27;;;9.00;99.90;;;;;;4948749;28;20047;-52
2023/04/08 11:11:09;;;;;;;35.55;22.35;;;9.00;99.90;;;;;;4946946;28;20042;-53
2023/04/08 11:13:44;;;;;;;32.60;19.98;;;9.10;99.90;;;;;;4942838;28;20078;-52
2023/04/08 11:16:09;;;;;;;33.13;20.67;;;9.10;99.90;;;;;;4939920;28;20134;-50
2023/04/08 11:18:38;;;;;;;33.65;19.73;;;9.10;99.90;;;;;;4944149;28;20047;-51
2023/04/08 11:21:08;;;;;;;33.30;20.58;;;9.20;99.90;;;;;;4926555;28;20161;-50
2023/04/08 11:23:35;;;;;;;35.03;20.23;;;9.20;99.90;;;;;;4933923;28;20066;-50
2023/04/08 11:26:01;;;;;;;37.50;21.20;;;9.20;99.90;;;;;;4927640;28;20054;-51
2023/04/08 11:28:27;;;;;;;40.20;22.52;;;9.30;99.90;;;;;;4933076;28;20706;-50
2023/04/08 11:30:54;;;;;;;46.38;23.33;;;9.30;99.90;;;;;;4930824;28;20039;-51
2023/04/08 11:33:20;;;;;;;39.65;21.73;;;9.30;99.90;;;;;;4942195;28;20043;-51
2023/04/08 11:35:53;;;;;;;39.13;22.85;;;9.40;99.90;;;;;;4944079;28;20098;-53
2023/04/08 11:38:22;;;;;;;33.95;21.00;;;9.40;99.90;;;;;;4948058;28;20059;-53
2023/04/08 11:40:56;;;;;;;35.22;20.80;;;9.50;99.90;;;;;;4948224;28;20123;-52
2023/04/08 11:43:22;;;;;;;35.65;21.02;;;9.50;99.90;;;;;;4946367;28;20529;-50
2023/04/08 11:45:48;;;;;;;35.58;22.40;;;9.50;99.90;;;;;;4941055;28;20398;-52
2023/04/08 11:48:15;;;;;;;36.88;21.88;;;9.60;99.90;;;;;;4941341;28;20102;-51
2023/04/08 11:50:42;;;;;;;33.22;20.13;;;9.60;99.90;;;;;;4942748;28;20053;-51
2023/04/08 11:53:19;;;;;;;30.45;19.20;;;9.60;99.90;;;;;;4931133;28;20054;-51
2023/04/08 11:55:45;;;;;;;32.35;19.38;;;9.60;99.90;;;;;;4930033;28;20051;-51
2023/04/08 11:58:11;;;;;;;31.15;19.80;;;9.60;99.90;;;;;;4933810;28;20839;-50
2023/04/08 12:00:37;;;;;;;28.38;19.52;;;9.70;99.90;;;;;;4944033;28;20506;-50
2023/04/08 12:03:03;;;;;;;33.88;19.95;;;9.70;99.90;;;;;;4941675;28;20567;-52
2023/04/08 12:05:29;;;;;;;36.75;19.83;;;9.70;99.90;;;;;;4946510;28;20097;-51
2023/04/08 12:07:55;;;;;;;31.65;20.50;;;9.70;99.90;;;;;;4937349;28;20054;-51
2023/04/08 12:10:21;;;;;;;30.52;21.00;;;9.70;99.90;;;;;;4935439;28;20043;-50
2023/04/08 12:12:46;;;;;;;34.20;21.73;;;9.70;99.90;;;;;;4948569;28;20038;-54
2023/04/08 12:15:12;;;;;;;31.38;19.90;;;9.70;99.90;;;;;;4940066;28;20046;-51
2023/04/08 12:17:38;;;;;;;31.20;19.73;;;9.70;99.90;;;;;;4940669;28;20082;-51
2023/04/08 12:20:05;;;;;;;27.65;19.70;;;9.70;99.90;;;;;;4937051;28;20046;-51
2023/04/08 12:22:31;;;;;;;33.13;20.65;;;9.70;99.90;;;;;;4943017;28;20189;-51
2023/04/08 12:24:57;;;;;;;29.15;19.67;;;9.80;99.90;;;;;;4949385;28;20564;-52
2023/04/08 12:27:22;;;;;;;29.33;20.40;;;9.80;99.90;;;;;;4941163;28;20054;-51
2023/04/08 12:29:48;;;;;;;30.85;19.77;;;9.80;99.90;;;;;;4942347;28;20053;-51
2023/04/08 12:32:15;;;;;;;30.98;20.10;;;9.90;99.90;;;;;;4946463;28;20050;-50
2023/04/08 12:34:40;;;;;;;30.92;19.95;;;10.00;99.90;;;;;;4940951;28;20046;-51
2023/04/08 12:37:06;;;;;;;27.40;19.58;;;10.00;99.90;;;;;;4938981;28;20054;-52
2023/04/08 12:39:32;;;;;;;32.35;19.75;;;10.10;99.90;;;;;;4904763;28;21079;-51
2023/04/08 12:41:58;;;;;;;24.60;17.10;;;10.10;99.90;;;;;;4937879;28;20146;-54